createdAt,value
2018-11-20T00:00:30.746Z,950.9
2018-11-20T00:01:30.727Z,950.96
2018-11-20T00:02:30.707Z,951.02
2018-11-20T00:03:30.697Z,950.97
2018-11-20T00:04:30.667Z,950.99
2018-11-20T00:05:30.649Z,950.95
2018-11-20T00:06:30.629Z,950.96
2018-11-20T00:07:30.610Z,950.93
2018-11-20T00:08:30.594Z,950.92
2018-11-20T00:09:30.571Z,950.93
2018-11-20T00:10:30.552Z,950.88
2018-11-20T00:11:30.531Z,950.9
2018-11-20T00:12:30.524Z,950.93
2018-11-20T00:13:30.492Z,950.86
2018-11-20T00:14:30.473Z,950.91
2018-11-20T00:15:30.452Z,950.8
2018-11-20T00:16:30.434Z,950.83
2018-11-20T00:17:30.415Z,950.87
2018-11-20T00:18:30.395Z,950.84
2018-11-20T00:19:30.376Z,950.74
2018-11-20T00:20:30.356Z,950.79
2018-11-20T00:21:30.337Z,950.79
2018-11-20T00:22:30.316Z,950.82
2018-11-20T00:23:30.299Z,950.75
2018-11-20T00:24:30.279Z,950.73
2018-11-20T00:25:30.268Z,950.78
2018-11-20T00:26:30.240Z,950.76
2018-11-20T00:27:30.221Z,950.79
2018-11-20T00:28:30.203Z,950.78
2018-11-20T00:29:30.183Z,950.73
2018-11-20T00:30:30.176Z,950.68
2018-11-20T00:31:30.150Z,950.64
2018-11-20T00:32:30.125Z,950.57
2018-11-20T00:33:30.105Z,950.5
2018-11-20T00:34:30.085Z,950.6
2018-11-20T00:35:30.067Z,950.51
2018-11-20T00:36:30.048Z,950.48
2018-11-20T00:37:30.028Z,950.48
2018-11-20T00:38:30.012Z,950.42
2018-11-20T00:39:29.989Z,950.42
2018-11-20T00:40:29.975Z,950.42
2018-11-20T00:41:29.963Z,950.39
2018-11-20T00:42:30.034Z,950.38
2018-11-20T00:43:29.911Z,950.38
2018-11-20T00:44:29.893Z,950.31
2018-11-20T00:45:29.875Z,950.25
2018-11-20T00:46:29.854Z,950.31
2018-11-20T00:47:29.848Z,950.17
2018-11-20T00:48:29.817Z,950.14
2018-11-20T00:49:29.797Z,950.11
2018-11-20T00:50:29.788Z,950.06
2018-11-20T00:51:29.758Z,949.97
2018-11-20T00:52:29.741Z,950.02
2018-11-20T00:53:29.720Z,950
2018-11-20T00:54:29.701Z,949.93
2018-11-20T00:55:29.681Z,949.9
2018-11-20T00:56:29.663Z,949.89
2018-11-20T00:57:29.643Z,949.93
2018-11-20T00:58:29.624Z,949.86
2018-11-20T00:59:29.604Z,949.9
2018-11-20T01:00:29.586Z,949.93
2018-11-20T01:01:29.566Z,949.94
2018-11-20T01:02:29.548Z,949.92
2018-11-20T01:03:29.528Z,949.91
2018-11-20T01:04:29.508Z,949.92
2018-11-20T01:05:29.556Z,949.9
2018-11-20T01:06:29.470Z,949.9
2018-11-20T01:07:29.452Z,949.81
2018-11-20T01:08:29.430Z,949.84
2018-11-20T01:09:29.413Z,949.79
2018-11-20T01:10:29.393Z,949.85
2018-11-20T01:11:29.374Z,949.81
2018-11-20T01:12:29.356Z,949.78
2018-11-20T01:13:29.336Z,949.81
2018-11-20T01:14:29.317Z,949.72
2018-11-20T01:15:29.298Z,949.71
2018-11-20T01:16:29.279Z,949.71
2018-11-20T01:17:29.259Z,949.69
2018-11-20T01:18:29.240Z,949.69
2018-11-20T01:19:29.221Z,949.67
2018-11-20T01:20:29.221Z,949.68
2018-11-20T01:21:29.182Z,949.64
2018-11-20T01:22:29.162Z,949.62
2018-11-20T01:23:29.144Z,949.59
2018-11-20T01:24:29.125Z,949.61
2018-11-20T01:25:29.104Z,949.53
2018-11-20T01:26:29.086Z,949.54
2018-11-20T01:27:29.066Z,949.52
2018-11-20T01:28:29.050Z,949.57
2018-11-20T01:29:29.028Z,949.52
2018-11-20T01:30:29.016Z,949.49
2018-11-20T01:31:28.990Z,949.51
2018-11-20T01:32:28.969Z,949.46
2018-11-20T01:33:28.950Z,949.48
2018-11-20T01:34:28.932Z,949.5
2018-11-20T01:35:28.909Z,949.48
2018-11-20T01:36:28.892Z,949.41
2018-11-20T01:37:28.875Z,949.45
2018-11-20T01:38:28.852Z,949.39
2018-11-20T01:39:28.834Z,949.36
2018-11-20T01:40:28.814Z,949.37
2018-11-20T01:41:28.847Z,949.27
2018-11-20T01:42:28.775Z,949.35
2018-11-20T01:43:28.755Z,949.26
2018-11-20T01:44:28.736Z,949.31
2018-11-20T01:45:28.719Z,949.37
2018-11-20T01:46:28.696Z,949.35
2018-11-20T01:47:28.677Z,949.33
2018-11-20T01:48:28.658Z,949.31
2018-11-20T01:49:28.641Z,949.35
2018-11-20T01:50:28.618Z,949.44
2018-11-20T01:51:28.723Z,949.35
2018-11-20T01:52:28.580Z,949.45
2018-11-20T01:53:28.560Z,949.34
2018-11-20T01:54:28.541Z,949.34
2018-11-20T01:55:28.521Z,949.3
2018-11-20T01:56:28.502Z,949.32
2018-11-20T01:57:28.480Z,949.29
2018-11-20T01:58:28.462Z,949.28
2018-11-20T01:59:28.443Z,949.35
2018-11-20T02:00:28.424Z,949.25
2018-11-20T02:01:28.403Z,949.21
2018-11-20T02:02:28.388Z,949.18
2018-11-20T02:03:28.370Z,949.15
2018-11-20T02:04:28.346Z,949.14
2018-11-20T02:05:28.326Z,949.16
2018-11-20T02:06:28.309Z,949.2
2018-11-20T02:07:28.287Z,949.23
2018-11-20T02:08:28.268Z,949.16
2018-11-20T02:09:28.251Z,949.13
2018-11-20T02:10:28.229Z,949.13
2018-11-20T02:11:28.208Z,949.14
2018-11-20T02:12:28.190Z,949.11
2018-11-20T02:13:28.170Z,949.07
2018-11-20T02:14:28.154Z,949.11
2018-11-20T02:15:28.131Z,949.15
2018-11-20T02:16:28.111Z,949.14
2018-11-20T02:17:28.092Z,949.14
2018-11-20T02:18:28.080Z,949.21
2018-11-20T02:19:28.052Z,949.26
2018-11-20T02:20:28.034Z,949.21
2018-11-20T02:21:28.020Z,949.18
2018-11-20T02:22:27.996Z,949.2
2018-11-20T02:23:27.975Z,949.24
2018-11-20T02:24:27.957Z,949.2
2018-11-20T02:25:27.938Z,949.17
2018-11-20T02:26:27.920Z,949.2
2018-11-20T02:27:27.898Z,949.19
2018-11-20T02:28:27.878Z,949.12
2018-11-20T02:29:27.860Z,949.12
2018-11-20T02:30:27.840Z,949.11
2018-11-20T02:31:27.822Z,949.14
2018-11-20T02:32:27.807Z,949.13
2018-11-20T02:33:27.781Z,949.17
2018-11-20T02:34:27.762Z,949.16
2018-11-20T02:35:27.743Z,949.11
2018-11-20T02:36:27.724Z,949.12
2018-11-20T02:37:27.704Z,949.08
2018-11-20T02:38:27.684Z,949.1
2018-11-20T02:39:27.666Z,949.09
2018-11-20T02:40:27.647Z,949.1
2018-11-20T02:41:27.627Z,949.11
2018-11-20T02:42:27.608Z,949.05
2018-11-20T02:43:27.589Z,949.07
2018-11-20T02:44:27.570Z,948.99
2018-11-20T02:45:27.560Z,949.02
2018-11-20T02:46:27.530Z,948.96
2018-11-20T02:47:27.511Z,948.99
2018-11-20T02:48:27.836Z,948.96
2018-11-20T02:49:27.474Z,948.94
2018-11-20T02:50:27.454Z,949.05
2018-11-20T02:51:27.474Z,949.01
2018-11-20T02:52:27.416Z,948.97
2018-11-20T02:53:27.397Z,949.02
2018-11-20T02:54:27.380Z,948.98
2018-11-20T02:55:27.358Z,949.03
2018-11-20T02:56:27.338Z,948.99
2018-11-20T02:57:27.319Z,949.01
2018-11-20T02:58:27.299Z,948.97
2018-11-20T02:59:27.283Z,949.04
2018-11-20T03:00:27.261Z,949
2018-11-20T03:01:27.243Z,949
2018-11-20T03:02:27.224Z,949.01
2018-11-20T03:03:27.211Z,949.07
2018-11-20T03:04:27.185Z,949.1
2018-11-20T03:05:27.165Z,949.05
2018-11-20T03:06:27.146Z,949.02
2018-11-20T03:07:27.127Z,949.04
2018-11-20T03:08:27.108Z,949.05
2018-11-20T03:09:27.090Z,948.95
2018-11-20T03:10:27.070Z,948.94
2018-11-20T03:11:27.050Z,948.97
2018-11-20T03:12:27.032Z,948.92
2018-11-20T03:13:27.014Z,948.97
2018-11-20T03:14:26.997Z,948.99
2018-11-20T03:15:26.974Z,948.93
2018-11-20T03:16:26.957Z,948.91
2018-11-20T03:17:26.936Z,948.93
2018-11-20T03:18:26.916Z,948.88
2018-11-20T03:19:26.898Z,948.79
2018-11-20T03:20:26.879Z,948.8
2018-11-20T03:21:26.859Z,948.85
2018-11-20T03:22:26.841Z,948.86
2018-11-20T03:23:26.825Z,948.87
2018-11-20T03:24:26.801Z,948.79
2018-11-20T03:25:26.783Z,948.85
2018-11-20T03:26:26.764Z,948.78
2018-11-20T03:27:26.745Z,948.88
2018-11-20T03:28:26.726Z,948.85
2018-11-20T03:29:26.708Z,948.82
2018-11-20T03:30:26.689Z,948.81
2018-11-20T03:31:26.669Z,948.82
2018-11-20T03:32:26.650Z,948.8
2018-11-20T03:33:26.630Z,948.87
2018-11-20T03:34:26.611Z,948.73
2018-11-20T03:35:26.593Z,948.74
2018-11-20T03:36:26.574Z,948.71
2018-11-20T03:37:26.554Z,948.65
2018-11-20T03:38:26.535Z,948.62
2018-11-20T03:39:26.516Z,948.67
2018-11-20T03:40:26.502Z,948.64
2018-11-20T03:41:26.477Z,948.57
2018-11-20T03:42:26.459Z,948.64
2018-11-20T03:43:26.445Z,948.61
2018-11-20T03:44:26.421Z,948.69
2018-11-20T03:45:26.404Z,948.66
2018-11-20T03:46:26.384Z,948.64
2018-11-20T03:47:26.363Z,948.67
2018-11-20T03:48:26.346Z,948.68
2018-11-20T03:49:26.333Z,948.69
2018-11-20T03:50:26.313Z,948.6
2018-11-20T03:51:26.288Z,948.62
2018-11-20T03:52:26.274Z,948.66
2018-11-20T03:53:26.251Z,948.62
2018-11-20T03:54:26.229Z,948.61
2018-11-20T03:55:26.211Z,948.63
2018-11-20T03:56:26.192Z,948.6
2018-11-20T03:57:26.174Z,948.57
2018-11-20T03:58:26.153Z,948.59
2018-11-20T03:59:26.135Z,948.63
2018-11-20T04:00:26.118Z,948.64
2018-11-20T04:01:26.097Z,948.63
2018-11-20T04:02:26.078Z,948.67
2018-11-20T04:03:26.060Z,948.66
2018-11-20T04:04:26.046Z,948.67
2018-11-20T04:05:26.022Z,948.66
2018-11-20T04:06:26.003Z,948.7
2018-11-20T04:07:25.988Z,948.67
2018-11-20T04:08:25.964Z,948.7
2018-11-20T04:09:25.945Z,948.73
2018-11-20T04:10:25.927Z,948.7
2018-11-20T04:11:25.908Z,948.7
2018-11-20T04:12:25.892Z,948.72
2018-11-20T04:13:25.870Z,948.63
2018-11-20T04:14:25.851Z,948.69
2018-11-20T04:15:25.832Z,948.59
2018-11-20T04:16:25.814Z,948.62
2018-11-20T04:17:25.794Z,948.64
2018-11-20T04:18:25.776Z,948.55
2018-11-20T04:19:25.757Z,948.58
2018-11-20T04:20:25.738Z,948.65
2018-11-20T04:21:25.718Z,948.55
2018-11-20T04:22:25.700Z,948.52
2018-11-20T04:23:25.682Z,948.53
2018-11-20T04:24:25.662Z,948.5
2018-11-20T04:25:25.645Z,948.51
2018-11-20T04:26:25.626Z,948.55
2018-11-20T04:27:25.605Z,948.47
2018-11-20T04:28:25.590Z,948.45
2018-11-20T04:29:25.573Z,948.5
2018-11-20T04:30:25.555Z,948.5
2018-11-20T04:31:25.530Z,948.46
2018-11-20T04:32:25.512Z,948.47
2018-11-20T04:33:25.493Z,948.43
2018-11-20T04:34:25.472Z,948.44
2018-11-20T04:35:25.455Z,948.37
2018-11-20T04:36:25.436Z,948.27
2018-11-20T04:37:25.417Z,948.28
2018-11-20T04:38:25.400Z,948.28
2018-11-20T04:39:25.379Z,948.22
2018-11-20T04:40:25.360Z,948.21
2018-11-20T04:41:25.401Z,948.37
2018-11-20T04:42:25.329Z,948.28
2018-11-20T04:43:25.302Z,948.25
2018-11-20T04:44:25.286Z,948.36
2018-11-20T04:45:25.269Z,948.39
2018-11-20T04:46:25.247Z,948.4
2018-11-20T04:47:25.229Z,948.46
2018-11-20T04:48:25.209Z,948.44
2018-11-20T04:49:25.190Z,948.45
2018-11-20T04:50:25.171Z,948.5
2018-11-20T04:51:25.152Z,948.47
2018-11-20T04:52:25.135Z,948.5
2018-11-20T04:53:25.114Z,948.36
2018-11-20T04:54:25.097Z,948.38
2018-11-20T04:55:25.076Z,948.35
2018-11-20T04:56:25.058Z,948.4
2018-11-20T04:57:25.082Z,948.47
2018-11-20T04:58:25.020Z,948.48
2018-11-20T04:59:25.003Z,948.48
2018-11-20T05:00:24.985Z,948.41
2018-11-20T05:01:24.971Z,948.49
2018-11-20T05:02:24.944Z,948.42
2018-11-20T05:03:24.927Z,948.49
2018-11-20T05:04:24.906Z,948.4
2018-11-20T05:05:24.889Z,948.4
2018-11-20T05:06:24.870Z,948.41
2018-11-20T05:07:24.852Z,948.33
2018-11-20T05:08:24.834Z,948.42
2018-11-20T05:09:24.813Z,948.39
2018-11-20T05:10:24.794Z,948.32
2018-11-20T05:11:24.780Z,948.3
2018-11-20T05:12:24.757Z,948.3
2018-11-20T05:13:24.865Z,948.37
2018-11-20T05:14:24.719Z,948.28
2018-11-20T05:15:24.700Z,948.34
2018-11-20T05:16:24.682Z,948.26
2018-11-20T05:17:24.662Z,948.19
2018-11-20T05:18:24.643Z,948.16
2018-11-20T05:19:24.625Z,948.18
2018-11-20T05:20:24.606Z,948.21
2018-11-20T05:21:24.589Z,948.2
2018-11-20T05:22:24.568Z,948.21
2018-11-20T05:23:24.553Z,948.27
2018-11-20T05:24:24.532Z,948.3
2018-11-20T05:25:24.513Z,948.2
2018-11-20T05:26:24.495Z,948.3
2018-11-20T05:27:24.476Z,948.25
2018-11-20T05:28:24.457Z,948.17
2018-11-20T05:29:24.451Z,948.19
2018-11-20T05:30:24.420Z,948.22
2018-11-20T05:31:24.401Z,948.15
2018-11-20T05:32:24.383Z,948.16
2018-11-20T05:33:24.364Z,948.11
2018-11-20T05:34:24.344Z,948.17
2018-11-20T05:35:24.326Z,948.09
2018-11-20T05:36:24.308Z,948.16
2018-11-20T05:37:24.289Z,948.22
2018-11-20T05:38:24.272Z,948.19
2018-11-20T05:39:24.256Z,948.21
2018-11-20T05:40:24.340Z,948.15
2018-11-20T05:41:24.213Z,948.15
2018-11-20T05:42:24.197Z,948.16
2018-11-20T05:43:24.181Z,948.13
2018-11-20T05:44:24.158Z,948.09
2018-11-20T05:45:24.140Z,948.22
2018-11-20T05:46:24.122Z,948.09
2018-11-20T05:47:24.102Z,948.12
2018-11-20T05:48:24.085Z,948.15
2018-11-20T05:49:24.065Z,948.08
2018-11-20T05:50:24.048Z,948.16
2018-11-20T05:51:24.027Z,948.08
2018-11-20T05:52:24.009Z,948.04
2018-11-20T05:53:23.991Z,948.11
2018-11-20T05:54:23.972Z,947.99
2018-11-20T05:55:23.955Z,948.02
2018-11-20T05:56:23.934Z,948.03
2018-11-20T05:57:23.917Z,947.97
2018-11-20T05:58:23.899Z,948.04
2018-11-20T05:59:23.883Z,948.05
2018-11-20T06:00:23.862Z,948.03
2018-11-20T06:01:23.843Z,948.06
2018-11-20T06:02:23.824Z,948.09
2018-11-20T06:03:23.805Z,948.07
2018-11-20T06:04:23.792Z,948.07
2018-11-20T06:05:23.770Z,948.13
2018-11-20T06:06:23.750Z,948.14
2018-11-20T06:07:23.731Z,948.17
2018-11-20T06:08:23.716Z,948.11
2018-11-20T06:09:23.693Z,948.13
2018-11-20T06:10:23.676Z,948.24
2018-11-20T06:11:23.658Z,948.14
2018-11-20T06:12:23.639Z,948.18
2018-11-20T06:13:23.620Z,948.19
2018-11-20T06:14:23.602Z,948.18
2018-11-20T06:15:23.583Z,948.23
2018-11-20T06:16:23.567Z,948.26
2018-11-20T06:17:23.546Z,948.25
2018-11-20T06:18:23.530Z,948.23
2018-11-20T06:19:23.511Z,948.25
2018-11-20T06:20:23.490Z,948.3
2018-11-20T06:21:23.474Z,948.25
2018-11-20T06:22:23.453Z,948.25
2018-11-20T06:23:23.435Z,948.29
2018-11-20T06:24:23.417Z,948.24
2018-11-20T06:25:23.401Z,948.24
2018-11-20T06:26:23.382Z,948.24
2018-11-20T06:27:23.362Z,948.27
2018-11-20T06:28:23.343Z,948.18
2018-11-20T06:29:23.501Z,948.2
2018-11-20T06:30:23.306Z,948.27
2018-11-20T06:31:23.287Z,948.28
2018-11-20T06:32:23.271Z,948.28
2018-11-20T06:33:23.250Z,948.37
2018-11-20T06:34:23.271Z,948.3
2018-11-20T06:35:23.213Z,948.27
2018-11-20T06:36:23.194Z,948.23
2018-11-20T06:37:23.183Z,948.23
2018-11-20T06:38:23.159Z,948.24
2018-11-20T06:39:23.138Z,948.27
2018-11-20T06:40:23.122Z,948.36
2018-11-20T06:41:23.150Z,948.31
2018-11-20T06:42:23.083Z,948.28
2018-11-20T06:43:23.066Z,948.33
2018-11-20T06:44:23.047Z,948.42
2018-11-20T06:45:23.028Z,948.1
2018-11-20T06:46:23.010Z,948.28
2018-11-20T06:47:23.135Z,948.28
2018-11-20T06:48:22.973Z,948.35
2018-11-20T06:49:22.955Z,948.29
2018-11-20T06:50:22.935Z,948.31
2018-11-20T06:51:22.919Z,948.27
2018-11-20T06:52:22.900Z,948.3
2018-11-20T06:53:23.002Z,948.22
2018-11-20T06:54:22.861Z,948.29
2018-11-20T06:55:22.844Z,948.22
2018-11-20T06:56:22.826Z,948.16
2018-11-20T06:57:22.855Z,948.25
2018-11-20T06:58:22.789Z,948.29
2018-11-20T06:59:22.770Z,948.17
2018-11-20T07:00:22.752Z,948.25
2018-11-20T07:01:22.773Z,948.22
2018-11-20T07:02:22.715Z,948.15
2018-11-20T07:03:22.695Z,948.02
2018-11-20T07:04:22.678Z,948.2
2018-11-20T07:05:22.659Z,948.13
2018-11-20T07:06:22.641Z,948.14
2018-11-20T07:07:22.809Z,948.1
2018-11-20T07:08:22.719Z,948.12
2018-11-20T07:09:22.588Z,948.07
2018-11-20T07:10:22.566Z,948.14
2018-11-20T07:11:22.554Z,948.06
2018-11-20T07:12:22.529Z,948.12
2018-11-20T07:13:22.512Z,947.89
2018-11-20T07:14:22.532Z,947.94
2018-11-20T07:15:22.671Z,948.04
2018-11-20T07:16:22.553Z,948.13
2018-11-20T07:17:22.438Z,948.01
2018-11-20T07:18:22.422Z,948.17
2018-11-20T07:19:22.405Z,947.99
2018-11-20T07:20:22.383Z,947.92
2018-11-20T07:21:22.364Z,948.06
2018-11-20T07:22:22.362Z,948.15
2018-11-20T07:23:22.329Z,948.22
2018-11-20T07:24:22.322Z,948.12
2018-11-20T07:25:22.290Z,948.11
2018-11-20T07:26:22.272Z,948.07
2018-11-20T07:27:22.252Z,948.03
2018-11-20T07:28:22.235Z,948.03
2018-11-20T07:29:22.226Z,948.01
2018-11-20T07:30:22.225Z,948
2018-11-20T07:31:22.293Z,947.96
2018-11-20T07:32:22.162Z,947.98
2018-11-20T07:33:22.150Z,947.92
2018-11-20T07:34:22.125Z,948.03
2018-11-20T07:35:22.116Z,948.01
2018-11-20T07:36:22.286Z,947.99
2018-11-20T07:37:22.411Z,947.98
2018-11-20T07:38:22.092Z,948.05
2018-11-20T07:39:22.035Z,947.94
2018-11-20T07:40:22.015Z,947.89
2018-11-20T07:41:21.996Z,948.08
2018-11-20T07:42:21.978Z,947.98
2018-11-20T07:43:22.016Z,947.91
2018-11-20T07:44:22.089Z,947.83
2018-11-20T07:45:21.975Z,947.96
2018-11-20T07:46:21.905Z,947.89
2018-11-20T07:47:21.887Z,948.02
2018-11-20T07:48:21.868Z,947.91
2018-11-20T07:49:21.850Z,948.02
2018-11-20T07:50:21.831Z,947.93
2018-11-20T07:51:21.816Z,947.99
2018-11-20T07:52:21.795Z,947.97
2018-11-20T07:53:21.777Z,948
2018-11-20T07:54:21.761Z,948.04
2018-11-20T07:55:21.826Z,947.9
2018-11-20T07:56:21.927Z,947.92
2018-11-20T07:57:21.708Z,947.95
2018-11-20T07:58:21.684Z,947.99
2018-11-20T07:59:21.666Z,948
2018-11-20T08:00:21.648Z,948.02
2018-11-20T08:01:21.630Z,947.97
2018-11-20T08:02:21.687Z,947.93
2018-11-20T08:03:21.594Z,947.85
2018-11-20T08:04:21.575Z,947.92
2018-11-20T08:05:21.557Z,947.94
2018-11-20T08:06:21.559Z,947.96
2018-11-20T08:07:21.521Z,947.95
2018-11-20T08:08:21.535Z,947.87
2018-11-20T08:09:21.484Z,947.89
2018-11-20T08:10:21.496Z,947.84
2018-11-20T08:11:21.448Z,947.9
2018-11-20T08:12:21.434Z,947.81
2018-11-20T08:13:21.412Z,947.69
2018-11-20T08:14:21.392Z,947.75
2018-11-20T08:15:21.439Z,947.62
2018-11-20T08:16:21.356Z,947.76
2018-11-20T08:17:21.340Z,947.68
2018-11-20T08:18:21.322Z,947.75
2018-11-20T08:19:21.302Z,947.73
2018-11-20T08:20:21.284Z,947.55
2018-11-20T08:21:21.264Z,947.64
2018-11-20T08:22:21.246Z,947.61
2018-11-20T08:23:21.229Z,947.59
2018-11-20T08:24:21.211Z,947.62
2018-11-20T08:25:21.386Z,947.51
2018-11-20T08:26:21.319Z,947.51
2018-11-20T08:27:21.169Z,947.48
2018-11-20T08:28:21.138Z,947.51
2018-11-20T08:29:21.119Z,947.61
2018-11-20T08:30:21.102Z,947.59
2018-11-20T08:31:21.085Z,947.6
2018-11-20T08:32:21.065Z,947.56
2018-11-20T08:33:21.046Z,947.57
2018-11-20T08:34:21.136Z,947.51
2018-11-20T08:35:21.072Z,947.61
2018-11-20T08:36:20.993Z,947.51
2018-11-20T08:37:20.975Z,947.51
2018-11-20T08:38:20.958Z,947.6
2018-11-20T08:39:20.939Z,947.52
2018-11-20T08:40:20.920Z,947.58
2018-11-20T08:41:20.903Z,947.54
2018-11-20T08:42:20.996Z,947.64
2018-11-20T08:43:20.866Z,947.63
2018-11-20T08:44:20.909Z,947.65
2018-11-20T08:45:20.831Z,947.65
2018-11-20T08:46:20.814Z,947.7
2018-11-20T08:47:20.794Z,947.72
2018-11-20T08:48:20.883Z,947.71
2018-11-20T08:49:20.761Z,947.68
2018-11-20T08:50:20.739Z,947.66
2018-11-20T08:51:20.723Z,947.67
2018-11-20T08:52:20.705Z,947.61
2018-11-20T08:53:20.687Z,947.63
2018-11-20T08:54:20.667Z,947.68
2018-11-20T08:55:20.652Z,947.69
2018-11-20T08:56:20.633Z,947.73
2018-11-20T08:57:20.618Z,947.73
2018-11-20T08:58:20.598Z,947.74
2018-11-20T08:59:20.579Z,947.82
2018-11-20T09:00:20.559Z,947.81
2018-11-20T09:01:20.542Z,947.81
2018-11-20T09:02:20.650Z,947.91
2018-11-20T09:03:20.616Z,947.86
2018-11-20T09:04:20.489Z,947.92
2018-11-20T09:05:20.474Z,947.96
2018-11-20T09:06:20.453Z,947.99
2018-11-20T09:07:20.441Z,947.94
2018-11-20T09:08:20.418Z,947.89
2018-11-20T09:09:20.401Z,947.86
2018-11-20T09:10:20.417Z,947.95
2018-11-20T09:11:20.363Z,947.9
2018-11-20T09:12:20.345Z,947.95
2018-11-20T09:13:20.328Z,948.01
2018-11-20T09:14:20.311Z,947.98
2018-11-20T09:15:20.295Z,948.05
2018-11-20T09:16:20.274Z,948.05
2018-11-20T09:17:20.268Z,948.01
2018-11-20T09:18:20.239Z,947.98
2018-11-20T09:19:20.220Z,948.1
2018-11-20T09:20:20.276Z,948.07
2018-11-20T09:21:20.276Z,948.08
2018-11-20T09:22:20.170Z,948.05
2018-11-20T09:23:20.151Z,947.95
2018-11-20T09:24:20.133Z,947.92
2018-11-20T09:25:20.116Z,947.97
2018-11-20T09:26:20.102Z,947.92
2018-11-20T09:27:20.080Z,947.89
2018-11-20T09:28:20.060Z,947.97
2018-11-20T09:29:20.043Z,947.95
2018-11-20T09:30:20.024Z,947.89
2018-11-20T09:31:20.008Z,947.93
2018-11-20T09:32:19.990Z,947.9
2018-11-20T09:33:19.972Z,947.92
2018-11-20T09:34:19.981Z,947.95
2018-11-20T09:35:19.998Z,947.95
2018-11-20T09:36:19.918Z,947.94
2018-11-20T09:37:19.901Z,947.89
2018-11-20T09:38:19.882Z,947.88
2018-11-20T09:39:19.864Z,947.93
2018-11-20T09:40:19.847Z,947.89
2018-11-20T09:41:19.832Z,947.91
2018-11-20T09:42:19.811Z,947.87
2018-11-20T09:43:19.794Z,948
2018-11-20T09:44:19.776Z,947.98
2018-11-20T09:45:19.755Z,947.87
2018-11-20T09:46:19.738Z,947.88
2018-11-20T09:47:19.720Z,947.9
2018-11-20T09:48:19.703Z,947.87
2018-11-20T09:49:19.683Z,947.87
2018-11-20T09:50:19.667Z,947.84
2018-11-20T09:51:19.649Z,947.88
2018-11-20T09:52:19.695Z,947.9
2018-11-20T09:53:19.612Z,947.95
2018-11-20T09:54:19.659Z,947.86
2018-11-20T09:55:19.578Z,947.8
2018-11-20T09:56:19.560Z,947.85
2018-11-20T09:57:19.578Z,947.89
2018-11-20T09:58:19.524Z,947.85
2018-11-20T09:59:19.580Z,947.88
2018-11-20T10:00:19.487Z,947.83
2018-11-20T10:01:19.470Z,947.82
2018-11-20T10:02:19.452Z,947.79
2018-11-20T10:03:19.432Z,947.78
2018-11-20T10:04:19.417Z,947.79
2018-11-20T10:05:19.398Z,947.81
2018-11-20T10:06:19.382Z,947.86
2018-11-20T10:07:19.457Z,947.83
2018-11-20T10:08:19.345Z,947.8
2018-11-20T10:09:19.326Z,947.79
2018-11-20T10:10:19.324Z,947.76
2018-11-20T10:11:19.290Z,947.69
2018-11-20T10:12:19.272Z,947.85
2018-11-20T10:13:19.254Z,947.76
2018-11-20T10:14:19.286Z,947.8
2018-11-20T10:15:19.311Z,947.75
2018-11-20T10:16:19.201Z,947.73
2018-11-20T10:17:19.183Z,947.68
2018-11-20T10:18:19.165Z,947.61
2018-11-20T10:19:19.146Z,947.74
2018-11-20T10:20:19.129Z,947.71
2018-11-20T10:21:19.129Z,947.71
2018-11-20T10:22:19.093Z,947.66
2018-11-20T10:23:19.075Z,947.67
2018-11-20T10:24:19.058Z,947.62
2018-11-20T10:25:19.132Z,947.66
2018-11-20T10:26:19.051Z,947.71
2018-11-20T10:27:19.009Z,947.58
2018-11-20T10:28:18.987Z,947.64
2018-11-20T10:29:18.967Z,947.68
2018-11-20T10:30:18.950Z,947.63
2018-11-20T10:31:18.932Z,947.58
2018-11-20T10:32:18.913Z,947.66
2018-11-20T10:33:18.897Z,947.59
2018-11-20T10:34:18.927Z,947.65
2018-11-20T10:35:18.862Z,947.5
2018-11-20T10:36:18.841Z,947.56
2018-11-20T10:37:18.823Z,947.52
2018-11-20T10:38:18.805Z,947.5
2018-11-20T10:39:18.787Z,947.48
2018-11-20T10:40:18.808Z,947.44
2018-11-20T10:41:18.751Z,947.41
2018-11-20T10:42:18.740Z,947.44
2018-11-20T10:43:18.717Z,947.43
2018-11-20T10:44:18.698Z,947.45
2018-11-20T10:45:18.696Z,947.38
2018-11-20T10:46:18.855Z,947.4
2018-11-20T10:47:18.646Z,947.35
2018-11-20T10:48:18.627Z,947.28
2018-11-20T10:49:18.607Z,947.29
2018-11-20T10:50:18.596Z,947.24
2018-11-20T10:51:18.573Z,947.28
2018-11-20T10:52:18.581Z,947.17
2018-11-20T10:53:18.541Z,947.18
2018-11-20T10:54:18.519Z,947.14
2018-11-20T10:55:18.500Z,947.12
2018-11-20T10:56:18.483Z,947.16
2018-11-20T10:57:18.467Z,947.06
2018-11-20T10:58:18.446Z,947.08
2018-11-20T10:59:18.428Z,946.93
2018-11-20T11:00:18.415Z,946.89
2018-11-20T11:01:18.394Z,946.91
2018-11-20T11:02:18.374Z,946.88
2018-11-20T11:03:18.363Z,946.86
2018-11-20T11:04:18.383Z,946.89
2018-11-20T11:05:18.322Z,946.87
2018-11-20T11:06:18.444Z,946.86
2018-11-20T11:07:18.428Z,946.82
2018-11-20T11:08:18.417Z,946.81
2018-11-20T11:09:18.249Z,946.81
2018-11-20T11:10:18.238Z,946.8
2018-11-20T11:11:18.215Z,946.83
2018-11-20T11:12:18.198Z,946.78
2018-11-20T11:13:18.178Z,946.76
2018-11-20T11:14:18.160Z,946.8
2018-11-20T11:15:18.143Z,946.76
2018-11-20T11:16:18.125Z,946.81
2018-11-20T11:17:18.108Z,946.82
2018-11-20T11:18:18.152Z,946.86
2018-11-20T11:19:18.073Z,946.79
2018-11-20T11:20:18.060Z,946.77
2018-11-20T11:21:18.038Z,946.73
2018-11-20T11:22:18.017Z,946.68
2018-11-20T11:23:18.001Z,946.68
2018-11-20T11:24:17.981Z,946.71
2018-11-20T11:25:17.965Z,946.68
2018-11-20T11:26:17.946Z,946.68
2018-11-20T11:27:17.929Z,946.68
2018-11-20T11:28:17.911Z,946.59
2018-11-20T11:29:17.893Z,946.62
2018-11-20T11:30:17.876Z,946.65
2018-11-20T11:31:17.857Z,946.68
2018-11-20T11:32:17.839Z,946.63
2018-11-20T11:33:17.876Z,946.63
2018-11-20T11:34:17.805Z,946.64
2018-11-20T11:35:17.789Z,946.63
2018-11-20T11:36:17.769Z,946.62
2018-11-20T11:37:17.752Z,946.56
2018-11-20T11:38:17.735Z,946.57
2018-11-20T11:39:17.716Z,946.6
2018-11-20T11:40:17.699Z,946.63
2018-11-20T11:41:17.689Z,946.57
2018-11-20T11:42:17.664Z,946.58
2018-11-20T11:43:17.645Z,946.59
2018-11-20T11:44:17.628Z,946.56
2018-11-20T11:45:17.612Z,946.53
2018-11-20T11:46:17.591Z,946.53
2018-11-20T11:47:17.576Z,946.57
2018-11-20T11:48:17.558Z,946.55
2018-11-20T11:49:17.540Z,946.55
2018-11-20T11:50:17.525Z,946.55
2018-11-20T11:51:17.505Z,946.5
2018-11-20T11:52:17.489Z,946.47
2018-11-20T11:53:17.468Z,946.54
2018-11-20T11:54:17.452Z,946.5
2018-11-20T11:55:17.441Z,946.54
2018-11-20T11:56:17.418Z,946.52
2018-11-20T11:57:17.399Z,946.57
2018-11-20T11:58:18.773Z,946.6
2018-11-20T11:59:17.365Z,946.55
2018-11-20T12:00:17.347Z,946.53
2018-11-20T12:01:17.327Z,946.55
2018-11-20T12:03:17.295Z,946.43
2018-11-20T12:04:17.275Z,946.42
2018-11-20T12:05:17.259Z,946.42
2018-11-20T12:06:17.243Z,946.44
2018-11-20T12:07:17.226Z,946.5
2018-11-20T12:08:17.208Z,946.54
2018-11-20T12:09:17.191Z,946.5
2018-11-20T12:10:17.172Z,946.55
2018-11-20T12:11:17.155Z,946.54
2018-11-20T12:12:17.137Z,946.58
2018-11-20T12:14:17.103Z,946.62
2018-11-20T12:15:17.084Z,946.55
2018-11-20T12:16:17.066Z,946.54
2018-11-20T12:17:17.049Z,946.52
2018-11-20T12:18:17.032Z,946.52
2018-11-20T12:19:17.016Z,946.55
2018-11-20T12:20:16.997Z,946.54
2018-11-20T12:21:16.981Z,946.53
2018-11-20T12:22:16.961Z,946.54
2018-11-20T12:23:16.945Z,946.47
2018-11-20T12:24:16.928Z,946.49
2018-11-20T12:25:16.912Z,946.44
2018-11-20T12:26:16.896Z,946.47
2018-11-20T12:27:16.880Z,946.45
2018-11-20T12:28:16.903Z,946.5
2018-11-20T12:29:17.075Z,946.38
2018-11-20T12:30:16.826Z,946.43
2018-11-20T12:31:16.808Z,946.39
2018-11-20T12:32:16.792Z,946.41
2018-11-20T12:33:16.774Z,946.41